sensor_id;sensor_type;location;lat;lon;timestamp;pressure;altitude;pressure_sealevel;temperature;humidity
3142;BME280;1581;51.568;6.998;2023-02-28T00:01:26;102326.41;;;2.29;100.00
3142;BME280;1581;51.568;6.998;2023-02-28T00:03:55;102332.44;;;2.31;100.00
3142;BME280;1581;51.568;6.998;2023-02-28T00:06:23;102325.50;;;2.16;100.00
3142;BME280;1581;51.568;6.998;2023-02-28T00:08:51;102324.78;;;2.14;100.00
3142;BME280;1581;51.568;6.998;2023-02-28T00:11:20;102330.16;;;2.25;100.00
3142;BME280;1581;51.568;6.998;2023-02-28T00:13:48;102332.16;;;2.22;100.00
3142;BME280;1581;51.568;6.998;2023-02-28T00:16:18;102326.66;;;2.12;100.00
3142;BME280;1581;51.568;6.998;2023-02-28T00:18:47;102334.34;;;2.01;100.00
3142;BME280;1581;51.568;6.998;2023-02-28T00:21:16;102331.53;;;2.04;100.00
3142;BME280;1581;51.568;6.998;2023-02-28T00:23:45;102336.22;;;1.99;100.00
3142;BME280;1581;51.568;6.998;2023-02-28T00:26:12;102334.44;;;2.00;100.00
3142;BME280;1581;51.568;6.998;2023-02-28T00:28:40;102334.75;;;1.81;100.00
3142;BME280;1581;51.568;6.998;2023-02-28T00:31:08;102332.84;;;1.97;100.00
3142;BME280;1581;51.568;6.998;2023-02-28T00:33:35;102341.13;;;1.91;100.00
3142;BME280;1581;51.568;6.998;2023-02-28T00:36:06;102335.84;;;2.05;100.00
3142;BME280;1581;51.568;6.998;2023-02-28T00:38:36;102341.50;;;1.85;100.00
3142;BME280;1581;51.568;6.998;2023-02-28T00:41:04;102341.69;;;1.82;100.00
3142;BME280;1581;51.568;6.998;2023-02-28T00:43:33;102333.81;;;1.82;100.00
3142;BME280;1581;51.568;6.998;2023-02-28T00:46:01;102334.28;;;1.89;100.00
3142;BME280;1581;51.568;6.998;2023-02-28T00:48:30;102337.94;;;2.00;100.00
3142;BME280;1581;51.568;6.998;2023-02-28T00:50:58;102338.22;;;1.96;100.00
3142;BME280;1581;51.568;6.998;2023-02-28T00:53:25;102341.31;;;1.88;100.00
3142;BME280;1581;51.568;6.998;2023-02-28T00:55:54;102335.47;;;1.97;100.00
3142;BME280;1581;51.568;6.998;2023-02-28T00:58:23;102334.91;;;2.06;100.00
3142;BME280;1581;51.568;6.998;2023-02-28T01:00:51;102342.78;;;2.20;100.00
3142;BME280;1581;51.568;6.998;2023-02-28T01:03:21;102343.53;;;2.22;100.00
3142;BME280;1581;51.568;6.998;2023-02-28T01:05:49;102345.94;;;2.25;100.00
3142;BME280;1581;51.568;6.998;2023-02-28T01:08:19;102345.41;;;2.20;100.00
3142;BME280;1581;51.568;6.998;2023-02-28T01:10:47;102349.44;;;2.12;100.00
3142;BME280;1581;51.568;6.998;2023-02-28T01:13:16;102352.19;;;2.24;100.00
3142;BME280;1581;51.568;6.998;2023-02-28T01:15:48;102350.47;;;2.23;100.00
3142;BME280;1581;51.568;6.998;2023-02-28T01:18:16;102341.84;;;2.21;100.00
3142;BME280;1581;51.568;6.998;2023-02-28T01:20:44;102349.81;;;2.20;100.00
3142;BME280;1581;51.568;6.998;2023-02-28T01:23:12;102347.28;;;2.32;99.44
3142;BME280;1581;51.568;6.998;2023-02-28T01:25:40;102353.94;;;2.38;99.12
3142;BME280;1581;51.568;6.998;2023-02-28T01:28:07;102355.09;;;2.46;98.46
3142;BME280;1581;51.568;6.998;2023-02-28T01:30:37;102354.72;;;2.52;97.94
3142;BME280;1581;51.568;6.998;2023-02-28T01:33:04;102346.19;;;2.49;97.86
3142;BME280;1581;51.568;6.998;2023-02-28T01:35:33;102349.66;;;2.49;98.09
3142;BME280;1581;51.568;6.998;2023-02-28T01:38:01;102343.09;;;2.42;97.58
3142;BME280;1581;51.568;6.998;2023-02-28T01:40:29;102339.38;;;2.32;98.58
3142;BME280;1581;51.568;6.998;2023-02-28T01:42:56;102340.78;;;2.24;98.55
3142;BME280;1581;51.568;6.998;2023-02-28T01:45:27;102333.59;;;2.13;98.95
3142;BME280;1581;51.568;6.998;2023-02-28T01:48:02;102336.56;;;2.21;98.44
3142;BME280;1581;51.568;6.998;2023-02-28T01:50:36;102335.47;;;2.11;98.72
3142;BME280;1581;51.568;6.998;2023-02-28T01:53:10;102323.91;;;2.00;99.77
3142;BME280;1581;51.568;6.998;2023-02-28T01:55:40;102319.22;;;1.91;100.00
3142;BME280;1581;51.568;6.998;2023-02-28T01:58:09;102322.91;;;1.88;100.00
3142;BME280;1581;51.568;6.998;2023-02-28T02:00:37;102323.47;;;1.79;100.00
3142;BME280;1581;51.568;6.998;2023-02-28T02:03:10;102325.16;;;1.67;100.00
3142;BME280;1581;51.568;6.998;2023-02-28T02:05:40;102316.44;;;1.66;100.00
3142;BME280;1581;51.568;6.998;2023-02-28T02:08:12;102315.50;;;1.53;100.00
3142;BME280;1581;51.568;6.998;2023-02-28T02:10:43;102313.16;;;1.49;100.00
3142;BME280;1581;51.568;6.998;2023-02-28T02:13:27;102312.19;;;1.36;100.00
3142;BME280;1581;51.568;6.998;2023-02-28T02:16:05;102301.91;;;1.33;100.00
3142;BME280;1581;51.568;6.998;2023-02-28T02:18:42;102305.81;;;1.26;100.00
3142;BME280;1581;51.568;6.998;2023-02-28T02:22:12;102302.41;;;1.10;100.00
3142;BME280;1581;51.568;6.998;2023-02-28T02:25:23;102301.94;;;1.03;100.00
3142;BME280;1581;51.568;6.998;2023-02-28T02:28:36;102297.81;;;0.99;100.00
3142;BME280;1581;51.568;6.998;2023-02-28T02:31:38;102291.97;;;0.94;100.00
3142;BME280;1581;51.568;6.998;2023-02-28T02:34:49;102293.06;;;0.90;100.00
3142;BME280;1581;51.568;6.998;2023-02-28T02:37:27;102300.28;;;0.87;100.00
3142;BME280;1581;51.568;6.998;2023-02-28T02:40:05;102296.19;;;0.83;100.00
3142;BME280;1581;51.568;6.998;2023-02-28T02:42:44;102295.50;;;0.80;100.00
3142;BME280;1581;51.568;6.998;2023-02-28T02:45:19;102301.69;;;0.79;100.00
3142;BME280;1581;51.568;6.998;2023-02-28T02:47:50;102304.38;;;0.77;100.00
3142;BME280;1581;51.568;6.998;2023-02-28T02:50:25;102302.97;;;0.72;100.00
3142;BME280;1581;51.568;6.998;2023-02-28T02:52:58;102307.28;;;0.73;100.00
3142;BME280;1581;51.568;6.998;2023-02-28T02:55:27;102309.41;;;0.66;100.00
3142;BME280;1581;51.568;6.998;2023-02-28T02:57:58;102305.34;;;0.61;100.00
3142;BME280;1581;51.568;6.998;2023-02-28T03:00:31;102307.72;;;0.65;100.00
3142;BME280;1581;51.568;6.998;2023-02-28T03:03:02;102311.44;;;0.61;100.00
3142;BME280;1581;51.568;6.998;2023-02-28T03:05:39;102307.13;;;0.60;100.00
3142;BME280;1581;51.568;6.998;2023-02-28T03:08:11;102310.13;;;0.54;100.00
3142;BME280;1581;51.568;6.998;2023-02-28T03:10:43;102303.19;;;0.53;100.00
3142;BME280;1581;51.568;6.998;2023-02-28T03:14:10;102314.09;;;0.46;100.00
3142;BME280;1581;51.568;6.998;2023-02-28T03:16:59;102301.00;;;0.46;100.00
3142;BME280;1581;51.568;6.998;2023-02-28T03:19:55;102307.25;;;0.43;100.00
3142;BME280;1581;51.568;6.998;2023-02-28T03:22:50;102298.22;;;0.33;100.00
3142;BME280;1581;51.568;6.998;2023-02-28T03:25:29;102297.47;;;0.31;100.00
3142;BME280;1581;51.568;6.998;2023-02-28T03:28:06;102310.72;;;0.28;100.00
3142;BME280;1581;51.568;6.998;2023-02-28T03:30:44;102309.28;;;0.38;100.00
3142;BME280;1581;51.568;6.998;2023-02-28T03:33:17;102305.88;;;0.36;100.00
3142;BME280;1581;51.568;6.998;2023-02-28T03:35:50;102305.22;;;0.33;100.00
3142;BME280;1581;51.568;6.998;2023-02-28T03:38:27;102316.38;;;0.36;100.00
3142;BME280;1581;51.568;6.998;2023-02-28T03:41:01;102306.91;;;0.34;100.00
3142;BME280;1581;51.568;6.998;2023-02-28T03:43:38;102315.72;;;0.33;100.00
3142;BME280;1581;51.568;6.998;2023-02-28T03:46:10;102312.59;;;0.26;100.00
3142;BME280;1581;51.568;6.998;2023-02-28T03:48:43;102310.66;;;0.30;100.00
3142;BME280;1581;51.568;6.998;2023-02-28T03:51:17;102316.72;;;0.30;100.00
3142;BME280;1581;51.568;6.998;2023-02-28T03:53:52;102318.44;;;0.31;100.00
3142;BME280;1581;51.568;6.998;2023-02-28T03:56:25;102311.06;;;0.22;100.00
3142;BME280;1581;51.568;6.998;2023-02-28T03:59:00;102313.19;;;0.31;100.00
3142;BME280;1581;51.568;6.998;2023-02-28T04:01:35;102312.84;;;0.22;100.00
3142;BME280;1581;51.568;6.998;2023-02-28T04:04:04;102309.13;;;0.26;100.00
3142;BME280;1581;51.568;6.998;2023-02-28T04:06:34;102305.41;;;0.30;100.00
3142;BME280;1581;51.568;6.998;2023-02-28T04:09:05;102312.81;;;0.37;100.00
3142;BME280;1581;51.568;6.998;2023-02-28T04:11:37;102312.16;;;0.18;100.00
3142;BME280;1581;51.568;6.998;2023-02-28T04:14:06;102304.06;;;0.23;100.00
3142;BME280;1581;51.568;6.998;2023-02-28T04:16:36;102306.25;;;0.30;100.00
3142;BME280;1581;51.568;6.998;2023-02-28T04:19:05;102313.50;;;0.25;100.00
3142;BME280;1581;51.568;6.998;2023-02-28T04:21:36;102313.28;;;0.30;100.00
3142;BME280;1581;51.568;6.998;2023-02-28T04:24:08;102319.00;;;0.36;100.00
3142;BME280;1581;51.568;6.998;2023-02-28T04:26:41;102322.13;;;0.43;100.00
3142;BME280;1581;51.568;6.998;2023-02-28T04:29:12;102318.16;;;0.36;100.00
3142;BME280;1581;51.568;6.998;2023-02-28T04:31:40;102310.81;;;0.27;100.00
3142;BME280;1581;51.568;6.998;2023-02-28T04:34:08;102313.69;;;0.22;100.00
3142;BME280;1581;51.568;6.998;2023-02-28T04:36:36;102324.59;;;0.15;100.00
3142;BME280;1581;51.568;6.998;2023-02-28T04:39:06;102322.13;;;0.12;100.00
3142;BME280;1581;51.568;6.998;2023-02-28T04:41:34;102325.88;;;0.08;100.00
3142;BME280;1581;51.568;6.998;2023-02-28T04:44:01;102325.88;;;0.08;100.00
3142;BME280;1581;51.568;6.998;2023-02-28T04:46:31;102325.22;;;0.04;100.00
3142;BME280;1581;51.568;6.998;2023-02-28T04:48:59;102325.78;;;0.09;100.00
3142;BME280;1581;51.568;6.998;2023-02-28T04:51:26;102326.81;;;0.07;100.00
3142;BME280;1581;51.568;6.998;2023-02-28T04:53:54;102323.84;;;0.13;100.00
3142;BME280;1581;51.568;6.998;2023-02-28T04:56:24;102325.94;;;0.06;100.00
3142;BME280;1581;51.568;6.998;2023-02-28T04:58:51;102326.88;;;0.21;100.00
3142;BME280;1581;51.568;6.998;2023-02-28T05:01:23;102333.91;;;0.20;100.00
3142;BME280;1581;51.568;6.998;2023-02-28T05:03:53;102327.56;;;0.24;100.00
3142;BME280;1581;51.568;6.998;2023-02-28T05:06:22;102330.69;;;0.15;100.00
3142;BME280;1581;51.568;6.998;2023-02-28T05:08:51;102328.41;;;0.25;100.00
3142;BME280;1581;51.568;6.998;2023-02-28T05:11:24;102325.44;;;0.15;100.00
3142;BME280;1581;51.568;6.998;2023-02-28T05:13:53;102335.91;;;0.15;100.00
3142;BME280;1581;51.568;6.998;2023-02-28T05:16:21;102324.75;;;0.12;100.00
3142;BME280;1581;51.568;6.998;2023-02-28T05:18:49;102336.44;;;0.22;100.00
3142;BME280;1581;51.568;6.998;2023-02-28T05:21:27;102335.75;;;0.18;100.00
3142;BME280;1581;51.568;6.998;2023-02-28T05:23:57;102336.94;;;0.13;100.00
3142;BME280;1581;51.568;6.998;2023-02-28T05:26:27;102337.44;;;0.35;100.00
3142;BME280;1581;51.568;6.998;2023-02-28T05:28:55;102342.94;;;0.30;99.35
3142;BME280;1581;51.568;6.998;2023-02-28T05:31:23;102339.56;;;0.28;99.14
3142;BME280;1581;51.568;6.998;2023-02-28T05:33:51;102344.13;;;0.25;99.67
3142;BME280;1581;51.568;6.998;2023-02-28T05:36:21;102343.78;;;0.15;100.00
3142;BME280;1581;51.568;6.998;2023-02-28T05:38:49;102339.56;;;0.13;100.00
3142;BME280;1581;51.568;6.998;2023-02-28T05:41:18;102343.72;;;0.17;99.70
3142;BME280;1581;51.568;6.998;2023-02-28T05:43:48;102352.75;;;0.11;99.89
3142;BME280;1581;51.568;6.998;2023-02-28T05:46:17;102349.38;;;0.09;100.00
3142;BME280;1581;51.568;6.998;2023-02-28T05:48:47;102353.69;;;0.10;100.00
3142;BME280;1581;51.568;6.998;2023-02-28T05:51:16;102356.16;;;0.13;100.00
3142;BME280;1581;51.568;6.998;2023-02-28T05:53:44;102349.09;;;-0.02;99.96
3142;BME280;1581;51.568;6.998;2023-02-28T05:56:11;102356.69;;;-0.12;100.00
3142;BME280;1581;51.568;6.998;2023-02-28T05:58:39;102356.19;;;-0.03;100.00
3142;BME280;1581;51.568;6.998;2023-02-28T06:01:33;102361.13;;;0.02;100.00
3142;BME280;1581;51.568;6.998;2023-02-28T06:04:02;102359.00;;;-0.06;100.00
3142;BME280;1581;51.568;6.998;2023-02-28T06:06:31;102353.75;;;-0.06;100.00
3142;BME280;1581;51.568;6.998;2023-02-28T06:09:00;102362.19;;;-0.02;100.00
3142;BME280;1581;51.568;6.998;2023-02-28T06:11:28;102358.22;;;-0.08;100.00
3142;BME280;1581;51.568;6.998;2023-02-28T06:13:57;102364.84;;;0.14;100.00
3142;BME280;1581;51.568;6.998;2023-02-28T06:16:28;102358.84;;;0.12;100.00
3142;BME280;1581;51.568;6.998;2023-02-28T06:18:58;102367.97;;;0.05;100.00
3142;BME280;1581;51.568;6.998;2023-02-28T06:21:26;102368.38;;;-0.03;100.00
3142;BME280;1581;51.568;6.998;2023-02-28T06:23:55;102370.31;;;-0.06;100.00
3142;BME280;1581;51.568;6.998;2023-02-28T06:26:24;102376.66;;;0.05;100.00
3142;BME280;1581;51.568;6.998;2023-02-28T06:28:52;102378.47;;;0.20;100.00
3142;BME280;1581;51.568;6.998;2023-02-28T06:31:19;102377.63;;;0.04;100.00
3142;BME280;1581;51.568;6.998;2023-02-28T06:33:49;102381.06;;;0.05;100.00
3142;BME280;1581;51.568;6.998;2023-02-28T06:36:17;102380.91;;;0.08;100.00
3142;BME280;1581;51.568;6.998;2023-02-28T06:38:45;102386.50;;;0.17;100.00
3142;BME280;1581;51.568;6.998;2023-02-28T06:41:17;102385.72;;;0.15;100.00
3142;BME280;1581;51.568;6.998;2023-02-28T06:43:45;102388.53;;;0.12;100.00
3142;BME280;1581;51.568;6.998;2023-02-28T06:46:14;102389.63;;;0.24;100.00
3142;BME280;1581;51.568;6.998;2023-02-28T06:48:43;102390.31;;;0.27;100.00
3142;BME280;1581;51.568;6.998;2023-02-28T06:51:15;102400.97;;;0.24;100.00
3142;BME280;1581;51.568;6.998;2023-02-28T06:53:43;102399.09;;;0.26;100.00
3142;BME280;1581;51.568;6.998;2023-02-28T06:56:13;102398.91;;;0.14;100.00
3142;BME280;1581;51.568;6.998;2023-02-28T06:58:41;102396.56;;;0.25;100.00
3142;BME280;1581;51.568;6.998;2023-02-28T07:01:09;102393.56;;;0.15;100.00
3142;BME280;1581;51.568;6.998;2023-02-28T07:03:37;102398.28;;;0.41;100.00
3142;BME280;1581;51.568;6.998;2023-02-28T07:06:05;102393.94;;;0.40;100.00
3142;BME280;1581;51.568;6.998;2023-02-28T07:08:35;102392.16;;;0.56;99.56
3142;BME280;1581;51.568;6.998;2023-02-28T07:11:04;102393.53;;;0.63;99.27
3142;BME280;1581;51.568;6.998;2023-02-28T07:13:31;102397.50;;;0.70;99.14
3142;BME280;1581;51.568;6.998;2023-02-28T07:16:08;102403.25;;;0.61;99.53
3142;BME280;1581;51.568;6.998;2023-02-28T07:18:37;102400.13;;;0.70;99.43
3142;BME280;1581;51.568;6.998;2023-02-28T07:21:07;102392.59;;;1.09;98.22
3142;BME280;1581;51.568;6.998;2023-02-28T07:23:37;102399.16;;;1.02;97.59
3142;BME280;1581;51.568;6.998;2023-02-28T07:26:06;102409.97;;;0.96;97.79
3142;BME280;1581;51.568;6.998;2023-02-28T07:28:34;102410.31;;;1.05;97.00
3142;BME280;1581;51.568;6.998;2023-02-28T07:31:07;102413.03;;;1.04;97.30
3142;BME280;1581;51.568;6.998;2023-02-28T07:33:36;102410.44;;;1.18;97.14
3142;BME280;1581;51.568;6.998;2023-02-28T07:36:06;102413.56;;;1.24;96.65
3142;BME280;1581;51.568;6.998;2023-02-28T07:38:37;102409.59;;;1.47;94.78
3142;BME280;1581;51.568;6.998;2023-02-28T07:41:06;102415.88;;;1.44;94.50
3142;BME280;1581;51.568;6.998;2023-02-28T07:43:34;102415.25;;;1.55;94.20
3142;BME280;1581;51.568;6.998;2023-02-28T07:46:13;102411.94;;;1.51;93.56
3142;BME280;1581;51.568;6.998;2023-02-28T07:48:43;102421.25;;;1.57;92.89
3142;BME280;1581;51.568;6.998;2023-02-28T07:51:11;102420.25;;;1.73;91.88
3142;BME280;1581;51.568;6.998;2023-02-28T07:53:41;102412.94;;;2.06;89.52
3142;BME280;1581;51.568;6.998;2023-02-28T07:56:08;102409.75;;;2.29;87.53
3142;BME280;1581;51.568;6.998;2023-02-28T07:58:37;102418.56;;;2.28;86.53
3142;BME280;1581;51.568;6.998;2023-02-28T08:01:09;102422.78;;;2.30;86.63
3142;BME280;1581;51.568;6.998;2023-02-28T08:03:39;102425.88;;;2.37;86.20
3142;BME280;1581;51.568;6.998;2023-02-28T08:06:14;102428.19;;;2.55;85.42
3142;BME280;1581;51.568;6.998;2023-02-28T08:08:44;102423.91;;;2.54;84.79
3142;BME280;1581;51.568;6.998;2023-02-28T08:11:12;102423.69;;;2.57;85.34
3142;BME280;1581;51.568;6.998;2023-02-28T08:13:40;102435.47;;;2.78;83.24
3142;BME280;1581;51.568;6.998;2023-02-28T08:16:10;102441.31;;;2.69;83.07
3142;BME280;1581;51.568;6.998;2023-02-28T08:18:40;102437.16;;;2.79;82.58
3142;BME280;1581;51.568;6.998;2023-02-28T08:21:08;102432.97;;;3.03;80.23
3142;BME280;1581;51.568;6.998;2023-02-28T08:23:36;102435.59;;;3.03;79.53
3142;BME280;1581;51.568;6.998;2023-02-28T08:26:06;102442.25;;;3.08;78.94
3142;BME280;1581;51.568;6.998;2023-02-28T08:28:34;102430.59;;;3.25;78.06
3142;BME280;1581;51.568;6.998;2023-02-28T08:31:10;102431.78;;;3.33;77.41
3142;BME280;1581;51.568;6.998;2023-02-28T08:33:40;102433.63;;;3.19;77.96
3142;BME280;1581;51.568;6.998;2023-02-28T08:36:09;102432.22;;;3.39;78.40
3142;BME280;1581;51.568;6.998;2023-02-28T08:38:37;102439.94;;;3.42;76.74
3142;BME280;1581;51.568;6.998;2023-02-28T08:41:09;102437.63;;;3.12;74.84
3142;BME280;1581;51.568;6.998;2023-02-28T08:43:39;102432.41;;;3.37;76.14
3142;BME280;1581;51.568;6.998;2023-02-28T08:46:08;102429.84;;;3.61;74.48
3142;BME280;1581;51.568;6.998;2023-02-28T08:48:38;102429.09;;;3.72;75.58
3142;BME280;1581;51.568;6.998;2023-02-28T08:51:08;102429.34;;;3.81;73.36
3142;BME280;1581;51.568;6.998;2023-02-28T08:53:37;102431.97;;;3.81;73.96
3142;BME280;1581;51.568;6.998;2023-02-28T08:56:08;102420.16;;;3.87;70.38
3142;BME280;1581;51.568;6.998;2023-02-28T08:58:37;102413.50;;;3.94;65.66
3142;BME280;1581;51.568;6.998;2023-02-28T09:01:10;102413.28;;;4.09;63.07
3142;BME280;1581;51.568;6.998;2023-02-28T09:03:39;102418.06;;;4.04;63.15
3142;BME280;1581;51.568;6.998;2023-02-28T09:06:09;102412.84;;;4.15;63.94
3142;BME280;1581;51.568;6.998;2023-02-28T09:08:37;102421.81;;;4.25;63.37
3142;BME280;1581;51.568;6.998;2023-02-28T09:11:07;102407.75;;;4.37;62.59
3142;BME280;1581;51.568;6.998;2023-02-28T09:13:35;102413.28;;;4.34;60.77
3142;BME280;1581;51.568;6.998;2023-02-28T09:16:06;102414.69;;;4.50;61.07
3142;BME280;1581;51.568;6.998;2023-02-28T09:18:35;102418.69;;;4.56;60.04
3142;BME280;1581;51.568;6.998;2023-02-28T09:21:05;102421.66;;;4.51;57.45
3142;BME280;1581;51.568;6.998;2023-02-28T09:23:33;102419.16;;;4.73;58.28
3142;BME280;1581;51.568;6.998;2023-02-28T09:26:01;102408.59;;;4.73;55.92
3142;BME280;1581;51.568;6.998;2023-02-28T09:28:30;102415.28;;;4.66;56.24
3142;BME280;1581;51.568;6.998;2023-02-28T09:30:58;102408.94;;;4.69;54.78
3142;BME280;1581;51.568;6.998;2023-02-28T09:33:26;102417.16;;;4.77;55.12
3142;BME280;1581;51.568;6.998;2023-02-28T09:35:59;102420.38;;;4.93;53.10
3142;BME280;1581;51.568;6.998;2023-02-28T09:38:28;102415.38;;;5.01;54.22
3142;BME280;1581;51.568;6.998;2023-02-28T09:40:59;102409.88;;;5.04;53.26
3142;BME280;1581;51.568;6.998;2023-02-28T09:43:33;102408.22;;;5.13;53.08
3142;BME280;1581;51.568;6.998;2023-02-28T09:46:11;102400.41;;;5.12;53.78
3142;BME280;1581;51.568;6.998;2023-02-28T09:48:45;102410.41;;;5.19;53.42
3142;BME280;1581;51.568;6.998;2023-02-28T09:51:32;102413.66;;;5.23;53.01
3142;BME280;1581;51.568;6.998;2023-02-28T09:54:01;102418.59;;;5.27;51.81
3142;BME280;1581;51.568;6.998;2023-02-28T09:56:36;102415.22;;;5.25;51.64
3142;BME280;1581;51.568;6.998;2023-02-28T09:59:13;102402.00;;;5.25;52.87
3142;BME280;1581;51.568;6.998;2023-02-28T10:01:54;102411.41;;;5.29;52.35
3142;BME280;1581;51.568;6.998;2023-02-28T10:04:40;102417.47;;;5.42;51.58
3142;BME280;1581;51.568;6.998;2023-02-28T10:07:21;102413.22;;;5.40;52.71
3142;BME280;1581;51.568;6.998;2023-02-28T10:09:54;102411.72;;;5.48;52.04
3142;BME280;1581;51.568;6.998;2023-02-28T10:12:26;102400.63;;;5.32;51.27
3142;BME280;1581;51.568;6.998;2023-02-28T10:14:58;102405.47;;;5.15;53.01
3142;BME280;1581;51.568;6.998;2023-02-28T10:17:37;102405.00;;;5.55;53.31
3142;BME280;1581;51.568;6.998;2023-02-28T10:20:10;102404.13;;;5.89;52.11
3142;BME280;1581;51.568;6.998;2023-02-28T10:22:52;102404.97;;;5.90;47.87
3142;BME280;1581;51.568;6.998;2023-02-28T10:25:23;102403.31;;;6.21;48.69
3142;BME280;1581;51.568;6.998;2023-02-28T10:27:53;102407.28;;;6.38;48.26
3142;BME280;1581;51.568;6.998;2023-02-28T10:30:23;102404.84;;;6.46;47.88
3142;BME280;1581;51.568;6.998;2023-02-28T10:32:52;102393.22;;;6.37;47.95
3142;BME280;1581;51.568;6.998;2023-02-28T10:35:22;102407.47;;;6.68;47.78
3142;BME280;1581;51.568;6.998;2023-02-28T10:37:54;102401.28;;;6.89;47.83
3142;BME280;1581;51.568;6.998;2023-02-28T10:40:33;102411.59;;;7.34;46.81
3142;BME280;1581;51.568;6.998;2023-02-28T10:43:03;102406.41;;;7.33;45.36
3142;BME280;1581;51.568;6.998;2023-02-28T10:45:33;102405.59;;;6.90;44.24
3142;BME280;1581;51.568;6.998;2023-02-28T10:48:06;102399.81;;;6.96;43.85
3142;BME280;1581;51.568;6.998;2023-02-28T10:50:53;102394.16;;;6.58;44.44
3142;BME280;1581;51.568;6.998;2023-02-28T10:53:31;102389.94;;;6.45;44.49
3142;BME280;1581;51.568;6.998;2023-02-28T10:56:02;102395.00;;;6.37;44.56
3142;BME280;1581;51.568;6.998;2023-02-28T10:58:40;102398.56;;;6.69;44.88
3142;BME280;1581;51.568;6.998;2023-02-28T11:01:17;102391.09;;;6.74;44.31
3142;BME280;1581;51.568;6.998;2023-02-28T11:03:45;102382.84;;;6.87;44.65
3142;BME280;1581;51.568;6.998;2023-02-28T11:06:17;102383.63;;;6.68;44.85
3142;BME280;1581;51.568;6.998;2023-02-28T11:08:49;102395.72;;;6.92;44.73
3142;BME280;1581;51.568;6.998;2023-02-28T11:11:19;102385.78;;;7.16;44.38
3142;BME280;1581;51.568;6.998;2023-02-28T11:13:51;102386.66;;;7.37;44.42
3142;BME280;1581;51.568;6.998;2023-02-28T11:16:21;102382.41;;;7.34;44.67
3142;BME280;1581;51.568;6.998;2023-02-28T11:18:51;102392.53;;;7.09;43.50
3142;BME280;1581;51.568;6.998;2023-02-28T11:21:25;102397.34;;;7.35;43.92
3142;BME280;1581;51.568;6.998;2023-02-28T11:24:02;102394.19;;;7.21;42.73
3142;BME280;1581;51.568;6.998;2023-02-28T11:26:43;102394.50;;;7.27;42.85
3142;BME280;1581;51.568;6.998;2023-02-28T11:29:19;102394.47;;;7.38;42.94
3142;BME280;1581;51.568;6.998;2023-02-28T11:32:16;102386.81;;;7.24;42.32
3142;BME280;1581;51.568;6.998;2023-02-28T11:34:46;102383.41;;;7.33;42.95
3142;BME280;1581;51.568;6.998;2023-02-28T11:37:17;102381.50;;;7.24;43.85
3142;BME280;1581;51.568;6.998;2023-02-28T11:39:46;102387.47;;;7.17;44.29
3142;BME280;1581;51.568;6.998;2023-02-28T11:43:01;102382.56;;;7.53;43.03
3142;BME280;1581;51.568;6.998;2023-02-28T11:45:55;102384.94;;;7.56;42.63
3142;BME280;1581;51.568;6.998;2023-02-28T11:48:33;102370.44;;;7.80;42.94
3142;BME280;1581;51.568;6.998;2023-02-28T11:51:11;102372.34;;;7.99;43.14
3142;BME280;1581;51.568;6.998;2023-02-28T11:54:07;102360.94;;;8.38;42.83
3142;BME280;1581;51.568;6.998;2023-02-28T11:56:44;102365.06;;;8.70;42.18
3142;BME280;1581;51.568;6.998;2023-02-28T11:59:40;102370.94;;;8.64;42.29
3142;BME280;1581;51.568;6.998;2023-02-28T12:02:24;102364.75;;;8.54;42.16
3142;BME280;1581;51.568;6.998;2023-02-28T12:05:09;102357.63;;;8.54;41.90
3142;BME280;1581;51.568;6.998;2023-02-28T12:07:48;102357.97;;;8.31;41.21
3142;BME280;1581;51.568;6.998;2023-02-28T12:10:23;102363.53;;;8.19;41.07
3142;BME280;1581;51.568;6.998;2023-02-28T12:13:16;102345.97;;;8.27;41.73
3142;BME280;1581;51.568;6.998;2023-02-28T12:16:18;102342.28;;;8.19;41.76
3142;BME280;1581;51.568;6.998;2023-02-28T12:19:04;102332.63;;;7.88;41.73
3142;BME280;1581;51.568;6.998;2023-02-28T12:21:49;102333.34;;;8.20;42.42
3142;BME280;1581;51.568;6.998;2023-02-28T12:24:55;102321.47;;;8.24;42.43
3142;BME280;1581;51.568;6.998;2023-02-28T12:27:31;102318.47;;;8.47;42.83
3142;BME280;1581;51.568;6.998;2023-02-28T12:30:04;102326.34;;;7.89;41.70
3142;BME280;1581;51.568;6.998;2023-02-28T12:32:37;102318.66;;;8.16;42.63
3142;BME280;1581;51.568;6.998;2023-02-28T12:35:14;102315.09;;;8.45;42.35
3142;BME280;1581;51.568;6.998;2023-02-28T12:37:51;102307.13;;;8.54;42.92
3142;BME280;1581;51.568;6.998;2023-02-28T12:40:25;102299.88;;;8.56;43.12
3142;BME280;1581;51.568;6.998;2023-02-28T12:42:58;102301.25;;;8.51;42.28
3142;BME280;1581;51.568;6.998;2023-02-28T12:45:39;102298.03;;;8.38;42.78
3142;BME280;1581;51.568;6.998;2023-02-28T12:48:12;102295.84;;;8.71;43.47
3142;BME280;1581;51.568;6.998;2023-02-28T12:50:42;102301.56;;;9.05;43.79
3142;BME280;1581;51.568;6.998;2023-02-28T12:53:18;102293.44;;;9.06;44.04
3142;BME280;1581;51.568;6.998;2023-02-28T12:56:03;102300.69;;;9.42;43.07
3142;BME280;1581;51.568;6.998;2023-02-28T12:58:37;102284.41;;;9.91;43.09
3142;BME280;1581;51.568;6.998;2023-02-28T13:04:42;102290.19;;;10.40;41.56
3142;BME280;1581;51.568;6.998;2023-02-28T13:07:45;102287.16;;;10.35;41.96
3142;BME280;1581;51.568;6.998;2023-02-28T13:10:18;102288.47;;;10.66;41.15
3142;BME280;1581;51.568;6.998;2023-02-28T13:12:51;102284.38;;;10.71;40.74
3142;BME280;1581;51.568;6.998;2023-02-28T13:15:23;102278.41;;;10.42;41.66
3142;BME280;1581;51.568;6.998;2023-02-28T13:17:56;102274.88;;;10.42;40.77
3142;BME280;1581;51.568;6.998;2023-02-28T13:20:29;102277.66;;;10.67;40.85
3142;BME280;1581;51.568;6.998;2023-02-28T13:22:59;102265.34;;;11.09;39.61
3142;BME280;1581;51.568;6.998;2023-02-28T13:25:53;102275.38;;;11.32;40.24
3142;BME280;1581;51.568;6.998;2023-02-28T13:29:19;102281.91;;;11.55;39.14
3142;BME280;1581;51.568;6.998;2023-02-28T13:32:38;102290.28;;;11.43;39.35
3142;BME280;1581;51.568;6.998;2023-02-28T13:38:36;102269.84;;;11.09;38.97
3142;BME280;1581;51.568;6.998;2023-02-28T13:41:46;102266.81;;;10.86;39.82
3142;BME280;1581;51.568;6.998;2023-02-28T13:44:19;102260.72;;;10.94;39.06
3142;BME280;1581;51.568;6.998;2023-02-28T13:47:20;102257.25;;;11.44;39.76
3142;BME280;1581;51.568;6.998;2023-02-28T13:49:49;102255.56;;;11.43;39.88
3142;BME280;1581;51.568;6.998;2023-02-28T13:52:23;102256.44;;;11.69;39.42
3142;BME280;1581;51.568;6.998;2023-02-28T13:55:24;102255.78;;;11.75;39.14
3142;BME280;1581;51.568;6.998;2023-02-28T13:58:20;102255.50;;;11.86;38.42